Kezdőlap
METAR-TAF:

METAR-TAF

Repülőterek :

Homel, Fehéroroszország

földrajzi szélesség: 52-31-36N, földrajzi hosszúság: 031-01-06E, magasság: 144 m

Jelenlegi meteorológiai megfigyelések

A jelentés 14 perccel ezelõtt készült, 06:00 UTC
Különbözõ irányokból fújó szél 2 kt
Hőmérséklet 13°C
Páratartalom 62%
Légköri nyomás 1030 hPa
Látótávolság: 4600 m
füst

METAR: UMGG 240600Z VRB01MPS 4600 FU NSC 13/06 Q1030 R10/D NOSIG

Idő: 09:14 (06:14 UTC)

Előrejelzés

A jelentés 1 órával és 14 perccel ezelõtt készült, 05:00 UTC
Az előrejelzés 24-én 06 óra UTC és 25-én 06 óra UTC között érvényes
Dél-délkeleti szél 12 kt
Látótávolság 10 km, vagy több
Szakadozott felhőzet 2500 lábon
24-én 21 óra UTC és 25-én 04 óra UTC között ideiglenes
Különbözõ irányokból fújó szél 4 kt
Látótávolság: 1200 m
Szakadozott felhőzet 400 lábon
Párásság

TAF: UMGG 240500Z 2406/2506 16006MPS 9999 BKN025 TEMPO 2421/2504 VRB02MPS 1200 BR BKN004

Meteorológiai megfigyelések és előrejelzések több, mint 4000 repülőtéren (METAR és TAF jelentéseket).

A térképen piros és sárga pontok jelzik az elérhető meteorológiai állomásokat.

Mozgassa az egeret a pont fölött, hogy megjelenjen az állomás neve.

Azután kattintson az időjárási megfigyelések és előrejelzések megtekintéséhez.

A térkép megváltoztatása: kattintson a fekete keresztel jelölt zöld gombra ráközelítéshez, a vonallal jelölt zöld gombra távolításhoz, vagy a zöld nyilakra a szomszédos térképek eléréséhez.


METAR-TAF: